createdAt,value
2018-04-12T00:00:51.880Z,7.20
2018-04-12T00:03:20.105Z,7.20
2018-04-12T00:05:48.336Z,7.10
2018-04-12T00:08:16.610Z,7.10
2018-04-12T00:10:44.913Z,7.10
2018-04-12T00:13:13.152Z,7.10
2018-04-12T00:15:41.444Z,7.00
2018-04-12T00:18:09.728Z,7.00
2018-04-12T00:20:37.975Z,7.00
2018-04-12T00:23:05.479Z,7.00
2018-04-12T00:25:32.947Z,7.00
2018-04-12T00:28:00.394Z,6.90
2018-04-12T00:30:27.841Z,6.90
2018-04-12T00:35:32.309Z,6.80
2018-04-12T00:37:59.844Z,6.80
2018-04-12T00:40:28.305Z,6.80
2018-04-12T00:42:56.592Z,6.80
2018-04-12T00:45:24.032Z,6.70
2018-04-12T00:47:52.319Z,6.70
2018-04-12T00:50:21.632Z,6.70
2018-04-12T00:52:49.084Z,6.70
2018-04-12T00:55:16.531Z,6.60
2018-04-12T00:57:44.794Z,6.60
2018-04-12T01:00:13.932Z,6.60
2018-04-12T01:02:41.406Z,6.60
2018-04-12T01:05:08.846Z,6.60
2018-04-12T01:07:37.304Z,6.50
2018-04-12T01:10:05.567Z,6.50
2018-04-12T01:12:33.860Z,6.40
2018-04-12T01:15:02.131Z,6.40
2018-04-12T01:17:29.594Z,6.40
2018-04-12T01:19:57.049Z,6.40
2018-04-12T01:22:24.487Z,6.40
2018-04-12T01:24:52.772Z,6.30
2018-04-12T01:27:21.101Z,6.30
2018-04-12T01:29:59.707Z,6.30
2018-04-12T01:32:38.388Z,6.30
2018-04-12T01:35:07.025Z,6.20
2018-04-12T01:37:34.467Z,6.20
2018-04-12T01:40:02.947Z,6.20
2018-04-12T01:42:30.380Z,6.10
2018-04-12T01:44:58.669Z,5.20
2018-04-12T01:47:26.095Z,6.10
2018-04-12T01:49:54.385Z,6.10
2018-04-12T01:52:22.677Z,6.10
2018-04-12T01:54:50.124Z,6.00
2018-04-12T01:57:18.400Z,6.00
2018-04-12T01:59:46.704Z,6.00
2018-04-12T02:02:14.237Z,6.00
2018-04-12T02:04:42.513Z,5.80
2018-04-12T02:07:10.791Z,5.90
2018-04-12T02:09:39.052Z,5.90
2018-04-12T02:12:08.044Z,5.90
2018-04-12T02:14:36.264Z,5.90
2018-04-12T02:17:09.417Z,5.80
2018-04-12T02:19:37.709Z,5.80
2018-04-12T02:22:05.148Z,5.80
2018-04-12T02:24:33.431Z,5.80
2018-04-12T02:27:01.719Z,5.80
2018-04-12T02:29:29.994Z,5.70
2018-04-12T02:31:58.290Z,5.70
2018-04-12T02:34:25.760Z,5.70
2018-04-12T02:36:53.191Z,5.70
2018-04-12T02:39:20.631Z,5.70
2018-04-12T02:41:48.128Z,5.70
2018-04-12T02:44:19.071Z,5.70
2018-04-12T02:46:46.531Z,5.70
2018-04-12T02:49:23.036Z,5.60
2018-04-12T02:51:54.400Z,5.60
2018-04-12T02:54:21.978Z,5.60
2018-04-12T02:56:49.437Z,5.60
2018-04-12T02:59:16.884Z,5.60
2018-04-12T03:01:45.216Z,5.50
2018-04-12T03:04:14.659Z,5.50
2018-04-12T03:06:42.953Z,5.50
2018-04-12T03:09:11.008Z,5.50
2018-04-12T03:11:39.297Z,5.50
2018-04-12T03:14:06.740Z,5.40
2018-04-12T03:16:36.093Z,5.40
2018-04-12T03:19:07.388Z,5.40
2018-04-12T03:21:35.656Z,5.40
2018-04-12T03:24:03.116Z,5.40
2018-04-12T03:26:30.583Z,5.40
2018-04-12T03:28:59.884Z,5.30
2018-04-12T03:31:28.176Z,5.30
2018-04-12T03:33:57.665Z,5.30
2018-04-12T03:36:25.948Z,5.30
2018-04-12T03:38:57.908Z,5.30
2018-04-12T03:41:25.379Z,5.30
2018-04-12T03:43:52.833Z,5.30
2018-04-12T03:46:21.109Z,5.20
2018-04-12T03:48:49.359Z,5.20
2018-04-12T03:51:16.852Z,5.20
2018-04-12T03:53:44.293Z,5.20
2018-04-12T03:59:05.580Z,5.10
2018-04-12T04:01:35.055Z,5.10
2018-04-12T04:04:02.486Z,5.10
2018-04-12T04:06:30.782Z,5.10
2018-04-12T04:08:58.241Z,5.10
2018-04-12T04:11:26.736Z,5.10
2018-04-12T04:13:54.176Z,5.10
2018-04-12T04:16:33.383Z,5.10
2018-04-12T04:19:12.878Z,5.10
2018-04-12T04:21:40.410Z,5.00
2018-04-12T04:24:08.668Z,5.00
2018-04-12T04:26:36.965Z,5.00
2018-04-12T04:29:05.240Z,5.00
2018-04-12T04:34:31.525Z,5.00
2018-04-12T04:39:36.668Z,5.00
2018-04-12T04:42:07.872Z,5.00
2018-04-12T04:44:35.324Z,5.00
2018-04-12T04:47:02.765Z,5.00
2018-04-12T04:49:34.456Z,5.00
2018-04-12T04:52:13.609Z,5.00
2018-04-12T04:54:41.057Z,5.00
2018-04-12T04:57:09.349Z,5.10
2018-04-12T04:59:36.804Z,5.00
2018-04-12T05:02:04.269Z,5.10
2018-04-12T05:04:33.800Z,5.10
2018-04-12T05:07:04.763Z,5.10
2018-04-12T05:09:32.196Z,5.10
2018-04-12T05:11:59.992Z,5.20
2018-04-12T05:14:28.284Z,5.20
2018-04-12T05:16:56.637Z,5.20
2018-04-12T05:19:24.071Z,5.20
2018-04-12T05:21:51.509Z,5.30
2018-04-12T05:24:19.973Z,5.30
2018-04-12T05:26:47.458Z,5.40
2018-04-12T05:29:15.938Z,5.50
2018-04-12T05:31:43.371Z,5.60
2018-04-12T05:34:11.237Z,5.60
2018-04-12T05:36:38.693Z,5.60
2018-04-12T05:39:06.973Z,5.80
2018-04-12T05:41:34.429Z,5.80
2018-04-12T05:44:05.414Z,5.80
2018-04-12T05:46:32.867Z,5.90
2018-04-12T05:49:00.325Z,6.00
2018-04-12T05:51:27.783Z,6.10
2018-04-12T05:53:55.227Z,6.20
2018-04-12T05:56:22.671Z,6.20
2018-04-12T05:58:50.113Z,6.30
2018-04-12T06:01:17.593Z,6.50
2018-04-12T06:03:45.044Z,6.50
2018-04-12T06:06:12.488Z,6.60
2018-04-12T06:08:39.957Z,6.70
2018-04-12T06:11:07.426Z,6.80
2018-04-12T06:13:35.913Z,6.90
2018-04-12T06:16:07.095Z,7.00
2018-04-12T06:18:34.662Z,7.00
2018-04-12T06:21:02.968Z,7.10
2018-04-12T06:23:30.465Z,7.10
2018-04-12T06:25:58.836Z,7.10
2018-04-12T06:28:26.433Z,7.10
2018-04-12T06:30:53.873Z,7.20
2018-04-12T06:33:23.351Z,7.20
2018-04-12T06:35:50.801Z,7.20
2018-04-12T06:38:19.264Z,7.30
2018-04-12T06:40:47.764Z,7.30
2018-04-12T06:43:15.246Z,7.30
2018-04-12T06:45:43.509Z,7.40
2018-04-12T06:48:10.967Z,7.40
2018-04-12T06:50:38.439Z,7.40
2018-04-12T06:53:05.897Z,7.40
2018-04-12T06:55:34.745Z,7.50
2018-04-12T06:58:02.239Z,7.50
2018-04-12T07:00:29.717Z,7.60
2018-04-12T07:02:57.182Z,7.60
2018-04-12T07:05:24.676Z,7.60
2018-04-12T07:07:52.229Z,7.60
2018-04-12T07:10:19.692Z,7.70
2018-04-12T07:12:50.653Z,7.70
2018-04-12T07:15:18.900Z,7.70
2018-04-12T07:17:46.873Z,7.70
2018-04-12T07:20:14.458Z,7.80
2018-04-12T07:22:46.026Z,7.90
2018-04-12T07:25:15.313Z,7.90
2018-04-12T07:27:42.775Z,7.90
2018-04-12T07:30:10.240Z,8.00
2018-04-12T07:32:37.696Z,8.00
2018-04-12T07:35:05.846Z,8.10
2018-04-12T07:37:33.289Z,8.20
2018-04-12T07:40:00.852Z,8.20
2018-04-12T07:42:29.188Z,8.30
2018-04-12T07:44:56.652Z,8.30
2018-04-12T07:47:24.128Z,8.40
2018-04-12T07:49:52.368Z,8.50
2018-04-12T07:52:20.803Z,8.50
2018-04-12T07:54:48.315Z,8.60
2018-04-12T07:57:15.760Z,8.60
2018-04-12T07:59:43.420Z,8.70
2018-04-12T08:02:10.996Z,8.70
2018-04-12T08:04:38.493Z,8.80
2018-04-12T08:07:06.830Z,8.90
2018-04-12T08:09:35.545Z,8.90
2018-04-12T08:12:03.376Z,9.00
2018-04-12T08:14:31.521Z,9.00
2018-04-12T08:17:02.547Z,9.00
2018-04-12T08:19:30.048Z,9.10
2018-04-12T08:21:57.730Z,9.10
2018-04-12T08:24:25.554Z,9.20
2018-04-12T08:26:53.833Z,9.20
2018-04-12T08:29:21.298Z,9.20
2018-04-12T08:31:52.401Z,9.30
2018-04-12T08:34:20.688Z,9.50
2018-04-12T08:36:48.778Z,9.50
2018-04-12T08:39:16.260Z,9.60
2018-04-12T08:41:43.709Z,9.70
2018-04-12T08:44:11.950Z,9.70
2018-04-12T08:46:40.223Z,9.80
2018-04-12T08:49:08.530Z,9.80
2018-04-12T08:51:35.998Z,9.80
2018-04-12T08:54:03.463Z,9.80
2018-04-12T08:56:30.912Z,9.80
2018-04-12T08:58:58.385Z,9.90
2018-04-12T09:01:25.870Z,9.90
2018-04-12T09:03:53.330Z,10.00
2018-04-12T09:06:24.193Z,10.00
2018-04-12T09:08:51.693Z,10.00
2018-04-12T09:11:19.140Z,10.00
2018-04-12T09:13:46.587Z,10.10
2018-04-12T09:16:14.067Z,10.20
2018-04-12T09:18:43.344Z,10.40
2018-04-12T09:21:10.832Z,10.30
2018-04-12T09:23:38.287Z,10.40
2018-04-12T09:26:05.744Z,10.50
2018-04-12T09:28:33.192Z,10.60
2018-04-12T09:31:00.661Z,10.70
2018-04-12T09:33:28.352Z,10.80
2018-04-12T09:35:55.992Z,10.90
2018-04-12T09:38:23.448Z,11.00
2018-04-12T09:40:50.916Z,11.00
2018-04-12T09:43:18.416Z,11.00
2018-04-12T09:45:46.789Z,11.00
2018-04-12T09:48:15.056Z,11.10
2018-04-12T09:50:43.344Z,11.10
2018-04-12T09:53:10.797Z,11.10
2018-04-12T09:55:38.279Z,11.20
2018-04-12T09:58:05.747Z,11.20
2018-04-12T10:03:27.060Z,11.40
2018-04-12T10:06:00.417Z,11.40
2018-04-12T10:08:48.573Z,11.40
2018-04-12T10:11:16.890Z,11.60
2018-04-12T10:13:45.352Z,11.60
2018-04-12T10:16:12.837Z,11.70
2018-04-12T10:18:41.113Z,12.00
2018-04-12T10:21:08.604Z,12.00
2018-04-12T10:23:36.856Z,12.40
2018-04-12T10:26:04.336Z,12.40
2018-04-12T10:28:35.650Z,12.60
2018-04-12T10:31:03.111Z,12.70
2018-04-12T10:33:30.585Z,12.90
2018-04-12T10:35:58.100Z,13.10
2018-04-12T10:38:25.652Z,13.30
2018-04-12T10:40:53.960Z,13.80
2018-04-12T10:43:21.417Z,13.80
2018-04-12T10:45:48.899Z,14.10
2018-04-12T10:48:16.376Z,14.40
2018-04-12T10:50:43.839Z,14.70
2018-04-12T10:53:11.768Z,15.00
2018-04-12T10:58:20.010Z,14.80
2018-04-12T11:00:50.049Z,14.80
2018-04-12T11:03:17.510Z,14.60
2018-04-12T11:05:45.915Z,14.40
2018-04-12T11:08:15.012Z,14.30
2018-04-12T11:10:42.472Z,14.30
2018-04-12T11:13:10.507Z,14.10
2018-04-12T11:15:37.992Z,14.10
2018-04-12T11:18:06.293Z,14.20
2018-04-12T11:20:34.752Z,14.10
2018-04-12T11:23:02.242Z,14.20
2018-04-12T11:25:30.742Z,14.20
2018-04-12T11:27:58.196Z,14.20
2018-04-12T11:30:28.507Z,14.30
2018-04-12T11:32:56.350Z,14.30
2018-04-12T11:35:23.803Z,14.40
2018-04-12T11:37:51.296Z,14.40
2018-04-12T11:40:20.528Z,14.60
2018-04-12T11:42:48.837Z,15.00
2018-04-12T11:45:16.310Z,15.00
2018-04-12T11:47:43.821Z,15.20
2018-04-12T11:50:12.224Z,15.30
2018-04-12T11:52:39.730Z,15.40
2018-04-12T11:55:07.241Z,15.60
2018-04-12T11:57:34.740Z,15.70
2018-04-12T12:00:02.244Z,16.00
2018-04-12T12:02:30.474Z,16.20
2018-04-12T12:04:57.945Z,16.20
2018-04-12T12:07:25.690Z,16.20
2018-04-12T12:09:53.213Z,16.30
2018-04-12T12:12:22.603Z,16.50
2018-04-12T12:14:50.926Z,16.70
2018-04-12T12:17:18.465Z,16.80
2018-04-12T12:19:45.949Z,17.10
2018-04-12T12:22:13.456Z,17.20
2018-04-12T12:24:41.726Z,17.30
2018-04-12T12:27:09.193Z,17.30
2018-04-12T12:29:36.672Z,17.40
2018-04-12T12:32:04.224Z,17.50
2018-04-12T12:34:31.720Z,17.50
2018-04-12T12:37:03.016Z,17.60
2018-04-12T12:39:30.509Z,17.60
2018-04-12T12:41:58.316Z,17.60
2018-04-12T12:44:25.805Z,17.70
2018-04-12T12:46:53.548Z,17.70
2018-04-12T12:49:25.086Z,17.70
2018-04-12T12:51:52.569Z,17.80
2018-04-12T12:54:20.892Z,17.80
2018-04-12T12:56:49.480Z,17.90
2018-04-12T12:59:18.942Z,18.20
2018-04-12T13:01:48.508Z,18.20
2018-04-12T13:04:19.642Z,18.20
2018-04-12T13:06:50.218Z,18.30
2018-04-12T13:09:22.258Z,18.40
2018-04-12T13:11:50.077Z,18.50
2018-04-12T13:14:17.765Z,18.40
2018-04-12T13:16:45.813Z,18.40
2018-04-12T13:19:15.141Z,18.30
2018-04-12T13:21:42.774Z,18.20
2018-04-12T13:24:10.760Z,18.20
2018-04-12T13:26:38.255Z,18.40
2018-04-12T13:29:05.723Z,18.50
2018-04-12T13:31:34.998Z,18.70
2018-04-12T13:39:39.062Z,18.70
2018-04-12T13:42:10.446Z,18.60
2018-04-12T13:44:39.380Z,18.50
2018-04-12T13:47:07.917Z,18.50
2018-04-12T13:49:39.172Z,18.30
2018-04-12T13:52:10.043Z,18.00
2018-04-12T13:54:44.345Z,17.90
2018-04-12T13:57:12.021Z,18.40
2018-04-12T13:59:41.813Z,17.80
2018-04-12T14:02:10.872Z,17.70
2018-04-12T14:04:40.098Z,17.70
2018-04-12T14:07:10.258Z,16.90
2018-04-12T14:09:41.241Z,17.70
2018-04-12T14:14:45.154Z,17.60
2018-04-12T14:17:12.634Z,17.70
2018-04-12T14:19:40.681Z,17.80
2018-04-12T14:22:09.518Z,17.80
2018-04-12T14:24:40.639Z,17.90
2018-04-12T14:27:10.492Z,17.90
2018-04-12T14:29:40.235Z,17.90
2018-04-12T14:32:10.320Z,17.90
2018-04-12T14:34:40.894Z,17.80
2018-04-12T14:37:11.333Z,17.80
2018-04-12T14:39:41.070Z,17.80
2018-04-12T14:42:10.411Z,17.70
2018-04-12T14:44:41.504Z,18.10
2018-04-12T14:47:11.379Z,17.70
2018-04-12T14:49:40.361Z,17.60
2018-04-12T14:52:10.296Z,17.60
2018-04-12T14:54:40.283Z,17.60
2018-04-12T14:57:10.114Z,17.60
2018-04-12T14:59:40.436Z,17.60
2018-04-12T15:02:10.318Z,17.60
2018-04-12T15:04:38.053Z,17.60
2018-04-12T15:07:05.632Z,17.60
2018-04-12T15:09:33.594Z,17.60
2018-04-12T15:12:01.352Z,17.50
2018-04-12T15:14:33.422Z,17.50
2018-04-12T15:17:09.208Z,17.40
2018-04-12T15:19:37.148Z,17.40
2018-04-12T15:24:43.214Z,17.40
2018-04-12T15:27:14.726Z,17.30
2018-04-12T15:29:45.008Z,17.30
2018-04-12T15:32:13.643Z,17.30
2018-04-12T15:34:42.663Z,17.30
2018-04-12T15:37:11.144Z,17.30
2018-04-12T15:39:38.862Z,17.30
2018-04-12T15:42:11.185Z,17.30
2018-04-12T15:44:39.490Z,17.40
2018-04-12T15:47:18.191Z,17.40
2018-04-12T15:49:46.784Z,17.40
2018-04-12T15:55:01.255Z,17.50
2018-04-12T15:57:33.380Z,17.50
2018-04-12T16:00:03.066Z,17.50
2018-04-12T16:02:31.165Z,17.50
2018-04-12T16:04:58.812Z,17.60
2018-04-12T16:07:28.830Z,17.60
2018-04-12T16:09:58.077Z,17.60
2018-04-12T16:12:32.582Z,17.60
2018-04-12T16:15:01.196Z,17.60
2018-04-12T16:17:28.657Z,17.60
2018-04-12T16:19:58.625Z,17.50
2018-04-12T16:22:28.365Z,17.50
2018-04-12T16:24:56.230Z,17.40
2018-04-12T16:27:23.787Z,17.40
2018-04-12T16:29:53.113Z,17.40
2018-04-12T16:32:21.987Z,17.30
2018-04-12T16:34:49.780Z,17.30
2018-04-12T16:37:17.668Z,17.30
2018-04-12T16:39:45.208Z,17.30
2018-04-12T16:42:12.981Z,17.90
2018-04-12T16:44:41.264Z,17.20
2018-04-12T16:47:09.075Z,17.20
2018-04-12T16:49:36.806Z,17.10
2018-04-12T16:52:04.414Z,17.10
2018-04-12T16:54:32.659Z,17.00
2018-04-12T16:57:00.241Z,16.90
2018-04-12T16:59:27.794Z,16.80
2018-04-12T17:01:56.333Z,16.80
2018-04-12T17:04:23.985Z,16.70
2018-04-12T17:06:53.426Z,16.70
2018-04-12T17:09:22.015Z,16.70
2018-04-12T17:11:50.278Z,16.60
2018-04-12T17:14:17.756Z,16.60
2018-04-12T17:16:46.307Z,16.60
2018-04-12T17:19:15.768Z,16.60
2018-04-12T17:21:48.060Z,16.60
2018-04-12T17:26:54.869Z,16.50
2018-04-12T17:29:22.668Z,16.50
2018-04-12T17:31:50.462Z,16.40
2018-04-12T17:34:18.045Z,16.40
2018-04-12T17:36:45.512Z,16.40
2018-04-12T17:39:13.001Z,16.30
2018-04-12T17:41:40.436Z,16.30
2018-04-12T17:44:07.923Z,16.20
2018-04-12T17:46:35.514Z,16.20
2018-04-12T17:49:03.245Z,16.10
2018-04-12T17:51:31.662Z,16.00
2018-04-12T17:54:00.099Z,15.90
2018-04-12T17:56:33.072Z,15.90
2018-04-12T18:01:48.062Z,15.80
2018-04-12T18:04:17.191Z,15.70
2018-04-12T18:06:46.840Z,15.70
2018-04-12T18:09:16.192Z,15.60
2018-04-12T18:11:45.074Z,15.60
2018-04-12T18:14:34.765Z,15.50
2018-04-12T18:17:05.701Z,15.50
2018-04-12T18:19:34.683Z,15.30
2018-04-12T18:22:03.338Z,15.30
2018-04-12T18:24:32.370Z,15.30
2018-04-12T18:27:01.582Z,15.10
2018-04-12T18:29:29.042Z,15.60
2018-04-12T18:31:58.243Z,15.00
2018-04-12T18:34:30.077Z,15.00
2018-04-12T18:36:57.668Z,15.00
2018-04-12T18:39:25.115Z,14.80
2018-04-12T18:41:52.648Z,14.80
2018-04-12T18:44:20.134Z,14.70
2018-04-12T18:46:48.341Z,14.50
2018-04-12T18:49:15.824Z,14.50
2018-04-12T18:51:43.331Z,14.40
2018-04-12T18:54:10.930Z,14.40
2018-04-12T18:56:39.253Z,14.30
2018-04-12T18:59:07.656Z,14.20
2018-04-12T19:01:35.142Z,14.10
2018-04-12T19:04:05.172Z,14.10
2018-04-12T19:06:32.710Z,14.00
2018-04-12T19:09:01.311Z,13.90
2018-04-12T19:11:40.818Z,13.90
2018-04-12T19:14:09.206Z,13.80
2018-04-12T19:16:40.133Z,13.70
2018-04-12T19:19:08.419Z,13.70
2018-04-12T19:21:39.829Z,13.50
2018-04-12T19:24:07.302Z,13.50
2018-04-12T19:26:34.786Z,13.50
2018-04-12T19:29:02.975Z,13.40
2018-04-12T19:31:30.530Z,13.40
2018-04-12T19:33:58.972Z,13.30
2018-04-12T19:36:27.277Z,13.20
2018-04-12T19:38:54.756Z,13.20
2018-04-12T19:41:22.272Z,13.10
2018-04-12T19:43:50.946Z,13.10
2018-04-12T19:46:18.399Z,13.00
2018-04-12T19:48:46.813Z,13.00
2018-04-12T19:51:15.241Z,12.90
2018-04-12T19:53:42.818Z,12.80
2018-04-12T19:56:11.328Z,12.70
2018-04-12T19:58:39.630Z,12.50
2018-04-12T20:01:07.130Z,12.60
2018-04-12T20:03:34.609Z,12.50
2018-04-12T20:06:02.177Z,12.50
2018-04-12T20:08:29.681Z,12.40
2018-04-12T20:10:57.211Z,12.40
2018-04-12T20:13:24.766Z,12.40
2018-04-12T20:15:52.256Z,12.30
2018-04-12T20:18:23.608Z,12.20
2018-04-12T20:20:51.084Z,12.20
2018-04-12T20:23:18.538Z,12.20
2018-04-12T20:25:46.083Z,12.10
2018-04-12T20:28:13.588Z,12.10
2018-04-12T20:30:41.929Z,12.00
2018-04-12T20:33:09.361Z,12.00
2018-04-12T20:35:36.831Z,11.90
2018-04-12T20:38:05.281Z,11.80
2018-04-12T20:40:32.730Z,11.70
2018-04-12T20:43:02.852Z,11.50
2018-04-12T20:45:31.136Z,11.50
2018-04-12T20:47:58.629Z,11.40
2018-04-12T20:50:26.360Z,11.40
2018-04-12T20:52:54.264Z,11.30
2018-04-12T20:55:21.789Z,11.30
2018-04-12T20:57:50.840Z,11.10
2018-04-12T21:00:18.355Z,11.10
2018-04-12T21:02:48.171Z,11.00
2018-04-12T21:05:15.733Z,11.00
2018-04-12T21:07:43.229Z,10.90
2018-04-12T21:10:10.700Z,10.90
2018-04-12T21:12:38.283Z,10.80
2018-04-12T21:15:06.772Z,10.70
2018-04-12T21:17:34.552Z,10.70
2018-04-12T21:20:02.085Z,10.60
2018-04-12T21:22:29.555Z,10.50
2018-04-12T21:24:57.356Z,10.50
2018-04-12T21:27:24.887Z,10.50
2018-04-12T21:29:52.483Z,10.50
2018-04-12T21:32:23.001Z,10.50
2018-04-12T21:34:50.520Z,10.50
2018-04-12T21:37:18.805Z,10.50
2018-04-12T21:39:47.065Z,10.50
2018-04-12T21:42:15.343Z,10.40
2018-04-12T21:44:43.668Z,10.40
2018-04-12T21:47:11.126Z,10.40
2018-04-12T21:49:38.615Z,10.30
2018-04-12T21:52:06.048Z,10.20
2018-04-12T21:54:33.541Z,10.20
2018-04-12T21:57:01.048Z,10.10
2018-04-12T21:59:28.585Z,10.00
2018-04-12T22:01:56.139Z,9.90
2018-04-12T22:04:27.880Z,9.70
2018-04-12T22:06:59.644Z,9.70
2018-04-12T22:09:27.974Z,9.60
2018-04-12T22:11:55.429Z,9.60
2018-04-12T22:14:22.880Z,9.60
2018-04-12T22:16:50.340Z,9.50
2018-04-12T22:19:17.792Z,9.50
2018-04-12T22:21:45.258Z,9.40
2018-04-12T22:24:13.064Z,9.30
2018-04-12T22:26:40.581Z,9.20
2018-04-12T22:29:08.042Z,9.20
2018-04-12T22:31:37.587Z,9.10
2018-04-12T22:34:05.021Z,9.10
2018-04-12T22:36:35.947Z,9.00
2018-04-12T22:39:03.407Z,9.00
2018-04-12T22:41:31.867Z,8.90
2018-04-12T22:44:01.641Z,8.90
2018-04-12T22:46:29.865Z,8.80
2018-04-12T22:48:57.324Z,8.80
2018-04-12T22:51:26.799Z,8.70
2018-04-12T22:53:54.252Z,8.70
2018-04-12T22:56:22.555Z,8.60
2018-04-12T22:58:49.988Z,8.60
2018-04-12T23:01:17.465Z,8.60
2018-04-12T23:03:44.909Z,8.60
2018-04-12T23:06:16.107Z,8.50
2018-04-12T23:08:47.384Z,8.50
2018-04-12T23:11:15.660Z,8.40
2018-04-12T23:13:43.924Z,8.40
2018-04-12T23:16:12.214Z,8.40
2018-04-12T23:18:40.490Z,8.40
2018-04-12T23:21:10.640Z,8.40
2018-04-12T23:23:38.119Z,8.30
2018-04-12T23:26:07.605Z,8.40
2018-04-12T23:28:35.067Z,8.40
2018-04-12T23:31:02.527Z,8.30
2018-04-12T23:33:30.981Z,8.30
2018-04-12T23:35:58.475Z,8.20
2018-04-12T23:38:25.917Z,8.20
2018-04-12T23:40:53.363Z,8.10
2018-04-12T23:43:20.804Z,8.10
2018-04-12T23:45:49.128Z,7.90
2018-04-12T23:48:19.804Z,7.90
2018-04-12T23:50:48.437Z,7.80
2018-04-12T23:53:15.988Z,7.80
2018-04-12T23:55:43.438Z,7.80
2018-04-12T23:58:10.878Z,7.70
